createdAt,value
2023-02-14T00:01:22.897Z,12.80
2023-02-14T00:03:49.801Z,13.40
2023-02-14T00:06:16.675Z,13.50
2023-02-14T00:08:44.129Z,13.60
2023-02-14T00:11:12.625Z,13.80
2023-02-14T00:13:39.357Z,13.70
2023-02-14T00:16:06.551Z,13.30
2023-02-14T00:18:51.702Z,13.20
2023-02-14T00:21:18.396Z,13.20
2023-02-14T00:23:45.001Z,13.30
2023-02-14T00:26:21.200Z,14.50
2023-02-14T00:28:47.927Z,13.10
2023-02-14T00:31:14.758Z,13.70
2023-02-14T00:33:41.503Z,13.40
2023-02-14T00:36:10.333Z,13.20
2023-02-14T00:38:37.014Z,11.90
2023-02-14T00:41:04.457Z,13.20
2023-02-14T00:43:31.184Z,12.60
2023-02-14T00:45:57.988Z,13.80
2023-02-14T00:48:25.663Z,12.20
2023-02-14T00:50:52.342Z,13.70
2023-02-14T00:53:19.015Z,13.00
2023-02-14T00:55:46.415Z,13.20
2023-02-14T00:58:13.169Z,12.60
2023-02-14T01:00:39.872Z,12.90
2023-02-14T01:03:06.610Z,12.60
2023-02-14T01:05:33.309Z,12.40
2023-02-14T01:07:59.865Z,13.90
2023-02-14T01:10:26.664Z,12.50
2023-02-14T01:12:53.292Z,11.50
2023-02-14T01:15:19.936Z,12.30
2023-02-14T01:17:46.934Z,12.20
2023-02-14T01:20:14.144Z,11.70
2023-02-14T01:22:40.837Z,12.30
2023-02-14T01:25:07.642Z,11.50
2023-02-14T01:27:34.430Z,12.40
2023-02-14T01:30:01.113Z,11.90
2023-02-14T01:32:31.157Z,11.30
2023-02-14T01:34:59.435Z,11.50
2023-02-14T01:37:26.151Z,11.60
2023-02-14T01:39:52.923Z,12.20
2023-02-14T01:42:19.501Z,11.50
2023-02-14T01:44:46.027Z,12.00
2023-02-14T01:47:13.425Z,12.00
2023-02-14T01:49:47.488Z,11.80
2023-02-14T01:52:41.433Z,11.80
2023-02-14T01:55:15.409Z,11.90
2023-02-14T01:57:49.904Z,11.30
2023-02-14T02:00:35.922Z,10.80
2023-02-14T02:03:04.674Z,11.80
2023-02-14T02:05:31.355Z,11.20
2023-02-14T02:08:00.130Z,11.40
2023-02-14T02:10:27.187Z,11.80
2023-02-14T02:12:54.189Z,11.90
2023-02-14T02:15:26.413Z,11.50
2023-02-14T02:18:06.139Z,10.90
2023-02-14T02:20:35.964Z,11.30
2023-02-14T02:23:42.530Z,12.30
2023-02-14T02:26:42.722Z,11.00
2023-02-14T02:29:42.728Z,11.20
2023-02-14T02:33:08.818Z,11.00
2023-02-14T02:36:09.140Z,10.60
2023-02-14T02:38:44.702Z,10.90
2023-02-14T02:41:45.073Z,10.30
2023-02-14T02:44:20.768Z,10.10
2023-02-14T02:47:07.348Z,10.30
2023-02-14T02:50:01.679Z,9.80
2023-02-14T02:53:05.705Z,9.90
2023-02-14T02:55:58.083Z,9.90
2023-02-14T02:58:34.612Z,10.40
2023-02-14T03:01:06.388Z,10.70
2023-02-14T03:03:52.833Z,9.30
2023-02-14T03:06:19.480Z,9.70
2023-02-14T03:08:46.225Z,10.30
2023-02-14T03:11:13.278Z,10.00
2023-02-14T03:14:19.137Z,9.70
2023-02-14T03:17:16.410Z,10.10
2023-02-14T03:20:10.978Z,10.10
2023-02-14T03:23:14.579Z,9.80
2023-02-14T03:26:02.449Z,9.80
2023-02-14T03:28:51.254Z,10.50
2023-02-14T03:31:44.378Z,10.70
2023-02-14T03:37:30.930Z,9.00
2023-02-14T03:40:19.972Z,9.30
2023-02-14T03:42:52.305Z,9.60
2023-02-14T03:45:37.269Z,9.90
2023-02-14T03:48:08.134Z,8.80
2023-02-14T03:50:36.347Z,9.60
2023-02-14T03:53:03.854Z,9.60
2023-02-14T03:55:36.507Z,10.20
2023-02-14T03:58:13.997Z,8.50
2023-02-14T04:00:42.046Z,9.50
2023-02-14T04:03:11.889Z,9.30
2023-02-14T04:05:43.117Z,9.20
2023-02-14T04:08:11.518Z,10.10
2023-02-14T04:10:39.602Z,10.00
2023-02-14T04:13:06.414Z,9.60
2023-02-14T04:15:33.032Z,10.00
2023-02-14T04:18:18.311Z,9.60
2023-02-14T04:20:44.850Z,9.30
2023-02-14T04:23:11.389Z,10.50
2023-02-14T04:25:39.766Z,9.60
2023-02-14T04:28:06.765Z,9.30
2023-02-14T04:30:33.520Z,9.40
2023-02-14T04:33:00.158Z,9.90
2023-02-14T04:35:26.808Z,9.90
2023-02-14T04:37:53.825Z,9.70
2023-02-14T04:40:20.532Z,9.70
2023-02-14T04:42:47.313Z,9.30
2023-02-14T04:45:14.248Z,8.70
2023-02-14T04:47:40.931Z,9.00
2023-02-14T04:50:08.200Z,8.70
2023-02-14T04:52:34.854Z,9.80
2023-02-14T04:55:01.491Z,9.20
2023-02-14T04:57:28.098Z,8.60
2023-02-14T04:59:54.737Z,9.30
2023-02-14T05:02:21.778Z,8.40
2023-02-14T05:04:49.849Z,8.10
2023-02-14T05:07:16.943Z,8.80
2023-02-14T05:09:43.679Z,7.60
2023-02-14T05:12:10.313Z,8.00
2023-02-14T05:14:36.969Z,7.90
2023-02-14T05:17:03.684Z,7.90
2023-02-14T05:19:30.311Z,8.30
2023-02-14T05:21:56.904Z,8.30
2023-02-14T05:24:23.828Z,8.50
2023-02-14T05:26:50.503Z,8.10
2023-02-14T05:29:17.189Z,7.50
2023-02-14T05:31:43.924Z,7.90
2023-02-14T05:34:10.741Z,7.30
2023-02-14T05:36:37.430Z,7.90
2023-02-14T05:39:04.414Z,7.60
2023-02-14T05:41:31.236Z,8.00
2023-02-14T05:43:57.771Z,8.30
2023-02-14T05:46:24.467Z,7.30
2023-02-14T05:48:51.314Z,7.90
2023-02-14T05:51:18.147Z,7.40
2023-02-14T05:53:44.756Z,8.00
2023-02-14T05:56:11.463Z,7.30
2023-02-14T05:58:38.156Z,8.30
2023-02-14T06:01:04.839Z,7.20
2023-02-14T06:03:31.464Z,7.80
2023-02-14T06:05:58.003Z,7.60
2023-02-14T06:08:24.587Z,8.00
2023-02-14T06:10:51.096Z,7.80
2023-02-14T06:13:17.631Z,8.10
2023-02-14T06:15:44.307Z,8.00
2023-02-14T06:18:10.919Z,7.90
2023-02-14T06:20:37.628Z,9.00
2023-02-14T06:23:04.259Z,7.70
2023-02-14T06:25:32.627Z,8.00
2023-02-14T06:27:59.291Z,8.50
2023-02-14T06:30:27.695Z,8.70
2023-02-14T06:32:56.878Z,8.20
2023-02-14T06:35:23.433Z,9.00
2023-02-14T06:37:50.132Z,8.30
2023-02-14T06:40:18.907Z,8.50
2023-02-14T06:42:45.465Z,8.60
2023-02-14T06:45:12.169Z,8.70
2023-02-14T06:47:39.264Z,9.40
2023-02-14T06:50:06.930Z,8.70
2023-02-14T06:52:33.739Z,9.60
2023-02-14T06:55:00.467Z,9.40
2023-02-14T06:57:27.715Z,9.20
2023-02-14T06:59:54.601Z,9.40
2023-02-14T07:02:24.700Z,8.80
2023-02-14T07:04:51.572Z,9.80
2023-02-14T07:07:18.275Z,9.00
2023-02-14T07:09:46.033Z,8.90
2023-02-14T07:12:13.165Z,8.00
2023-02-14T07:14:39.917Z,8.00
2023-02-14T07:17:07.012Z,8.00
2023-02-14T07:19:33.755Z,8.40
2023-02-14T07:22:00.403Z,8.40
2023-02-14T07:24:27.174Z,8.20
2023-02-14T07:26:53.776Z,8.40
2023-02-14T07:29:20.434Z,8.20
2023-02-14T07:31:47.305Z,8.50
2023-02-14T07:34:14.051Z,8.00
2023-02-14T07:36:40.779Z,7.90
2023-02-14T07:39:07.479Z,7.90
2023-02-14T07:41:34.136Z,8.10
2023-02-14T07:44:00.803Z,8.60
2023-02-14T07:46:27.638Z,7.60
2023-02-14T07:48:54.332Z,8.20
2023-02-14T07:51:20.907Z,8.10
2023-02-14T07:53:47.863Z,8.50
2023-02-14T07:56:14.789Z,8.70
2023-02-14T07:58:41.501Z,8.60
2023-02-14T08:01:08.240Z,8.50
2023-02-14T08:03:34.913Z,8.70
2023-02-14T08:06:02.814Z,9.30
2023-02-14T08:08:31.245Z,8.60
2023-02-14T08:10:59.028Z,8.70
2023-02-14T08:13:26.375Z,9.00
2023-02-14T08:16:05.884Z,10.30
2023-02-14T08:18:37.266Z,9.50
2023-02-14T08:21:06.959Z,10.60
2023-02-14T08:23:33.897Z,10.50
2023-02-14T08:26:03.846Z,9.90
2023-02-14T08:28:32.562Z,8.90
2023-02-14T08:30:59.505Z,10.10
2023-02-14T08:33:27.276Z,10.70
2023-02-14T08:35:54.210Z,10.50
2023-02-14T08:38:21.313Z,10.20
2023-02-14T08:40:48.037Z,9.90
2023-02-14T08:43:15.060Z,10.30
2023-02-14T08:45:41.963Z,10.00
2023-02-14T08:48:11.660Z,10.20
2023-02-14T08:50:39.583Z,10.70
2023-02-14T08:53:08.582Z,10.60
2023-02-14T08:55:35.776Z,10.80
2023-02-14T08:58:03.427Z,10.20
2023-02-14T09:00:31.647Z,10.10
2023-02-14T09:02:58.952Z,10.70
2023-02-14T09:05:26.212Z,10.60
2023-02-14T09:07:55.622Z,10.50
2023-02-14T09:10:23.018Z,10.70
2023-02-14T09:12:50.395Z,10.00
2023-02-14T09:15:17.196Z,9.10
2023-02-14T09:17:43.944Z,9.60
2023-02-14T09:20:15.506Z,9.90
2023-02-14T09:22:43.068Z,9.40
2023-02-14T09:25:10.163Z,9.00
2023-02-14T09:27:37.228Z,9.30
2023-02-14T09:30:06.455Z,10.40
2023-02-14T09:32:33.612Z,8.80
2023-02-14T09:35:00.940Z,9.50
2023-02-14T09:37:46.166Z,9.60
2023-02-14T09:40:15.631Z,9.20
2023-02-14T09:43:09.537Z,6.90
2023-02-14T09:45:36.629Z,8.10
2023-02-14T09:48:14.022Z,9.00
2023-02-14T09:51:03.434Z,8.70
2023-02-14T09:53:38.359Z,8.60
2023-02-14T09:56:28.821Z,8.70
2023-02-14T09:59:16.542Z,8.20
2023-02-14T10:01:49.684Z,8.20
2023-02-14T10:04:32.295Z,7.60
2023-02-14T10:07:23.099Z,8.30
2023-02-14T10:10:14.825Z,8.40
2023-02-14T10:12:46.585Z,7.90
2023-02-14T10:15:39.659Z,7.60
2023-02-14T10:18:21.643Z,7.30
2023-02-14T10:20:56.604Z,7.00
2023-02-14T10:23:40.699Z,5.80
2023-02-14T10:26:14.742Z,6.80
2023-02-14T10:28:48.682Z,4.80
2023-02-14T10:31:54.988Z,5.00
2023-02-14T10:34:41.734Z,5.70
2023-02-14T10:38:03.965Z,5.20
2023-02-14T10:40:41.308Z,4.90
2023-02-14T10:43:27.686Z,5.10
2023-02-14T10:46:36.557Z,4.00
2023-02-14T10:49:38.820Z,4.30
2023-02-14T10:52:25.046Z,4.50
2023-02-14T10:54:58.483Z,4.80
2023-02-14T10:57:40.142Z,5.10
2023-02-14T11:00:16.821Z,4.60
2023-02-14T11:02:46.656Z,4.40
2023-02-14T11:05:47.019Z,4.20
2023-02-14T11:08:37.217Z,4.70
2023-02-14T11:11:36.854Z,4.60
2023-02-14T11:14:28.165Z,4.90
2023-02-14T11:16:57.100Z,4.80
2023-02-14T11:19:30.263Z,3.90
2023-02-14T11:21:59.599Z,3.70
2023-02-14T11:24:34.881Z,3.30
2023-02-14T11:27:06.707Z,4.30
2023-02-14T11:29:40.778Z,2.70
2023-02-14T11:35:19.685Z,2.60
2023-02-14T11:37:52.223Z,3.10
2023-02-14T11:40:36.041Z,3.10
2023-02-14T11:43:15.191Z,3.30
2023-02-14T11:45:44.614Z,3.90
2023-02-14T11:48:38.787Z,3.30
2023-02-14T11:51:13.834Z,3.10
2023-02-14T11:53:49.712Z,3.00
2023-02-14T11:56:17.880Z,2.80
2023-02-14T11:58:44.502Z,3.30
2023-02-14T12:01:20.724Z,4.30
2023-02-14T12:03:48.471Z,4.00
2023-02-14T12:06:31.323Z,3.50
2023-02-14T12:09:26.945Z,3.90
2023-02-14T12:11:55.269Z,3.60
2023-02-14T12:14:23.930Z,3.60
2023-02-14T12:17:15.351Z,3.20
2023-02-14T12:19:50.319Z,4.10
2023-02-14T12:22:32.586Z,4.60
2023-02-14T12:25:25.488Z,3.80
2023-02-14T12:28:00.717Z,4.30
2023-02-14T12:30:31.516Z,4.70
2023-02-14T12:32:58.309Z,5.00
2023-02-14T12:35:42.854Z,4.20
2023-02-14T12:38:30.295Z,4.20
2023-02-14T12:41:18.307Z,4.20
2023-02-14T12:44:29.482Z,3.70
2023-02-14T12:46:59.384Z,3.70
2023-02-14T12:50:16.553Z,4.00
2023-02-14T12:53:06.400Z,3.90
2023-02-14T12:56:28.066Z,3.70
2023-02-14T12:58:54.659Z,4.10
2023-02-14T13:01:54.939Z,4.50
2023-02-14T13:04:52.691Z,4.50
2023-02-14T13:07:37.711Z,4.70
2023-02-14T13:10:30.477Z,4.50
2023-02-14T13:13:08.896Z,4.20
2023-02-14T13:15:58.927Z,4.30
2023-02-14T13:18:48.278Z,4.30
2023-02-14T13:21:18.484Z,5.10
2023-02-14T13:23:48.118Z,5.00
2023-02-14T13:26:36.443Z,6.00
2023-02-14T13:29:09.756Z,5.20
2023-02-14T13:31:37.485Z,4.40
2023-02-14T13:34:13.162Z,5.50
2023-02-14T13:36:40.188Z,5.00
2023-02-14T13:39:09.149Z,5.90
2023-02-14T13:41:41.144Z,5.70
2023-02-14T13:44:08.805Z,5.40
2023-02-14T13:46:36.418Z,5.90
2023-02-14T13:49:03.089Z,5.50
2023-02-14T13:51:51.583Z,6.20
2023-02-14T13:54:44.443Z,5.80
2023-02-14T13:57:33.580Z,5.80
2023-02-14T14:00:18.649Z,6.00
2023-02-14T14:02:54.402Z,6.40
2023-02-14T14:05:34.838Z,5.90
2023-02-14T14:08:19.997Z,5.60
2023-02-14T14:10:50.045Z,6.50
2023-02-14T14:13:41.599Z,6.50
2023-02-14T14:16:23.575Z,6.70
2023-02-14T14:18:58.148Z,6.10
2023-02-14T14:21:38.706Z,6.70
2023-02-14T14:24:24.507Z,8.00
2023-02-14T14:27:03.922Z,8.30
2023-02-14T14:29:46.290Z,7.30
2023-02-14T14:32:30.342Z,8.00
2023-02-14T14:35:22.668Z,8.00
2023-02-14T14:37:57.891Z,8.00
2023-02-14T14:40:31.554Z,8.10
2023-02-14T14:43:13.098Z,8.80
2023-02-14T14:45:42.941Z,6.90
2023-02-14T14:48:48.605Z,6.70
2023-02-14T14:51:30.973Z,6.50
2023-02-14T14:54:13.935Z,7.30
2023-02-14T14:57:01.163Z,6.90
2023-02-14T14:59:34.878Z,7.30
2023-02-14T15:02:04.906Z,7.00
2023-02-14T15:04:34.526Z,7.90
2023-02-14T15:07:32.521Z,8.40
2023-02-14T15:10:00.149Z,8.30
2023-02-14T15:12:46.400Z,8.20
2023-02-14T15:15:16.611Z,8.20
2023-02-14T15:17:44.066Z,8.90
2023-02-14T15:20:17.477Z,8.70
2023-02-14T15:22:48.197Z,10.00
2023-02-14T15:25:26.566Z,8.90
2023-02-14T15:27:53.780Z,9.50
2023-02-14T15:30:33.468Z,8.60
2023-02-14T15:33:05.031Z,7.90
2023-02-14T15:35:34.670Z,7.70
2023-02-14T15:38:04.776Z,7.70
2023-02-14T15:40:34.493Z,8.20
2023-02-14T15:43:18.055Z,8.00
2023-02-14T15:45:47.552Z,8.10
2023-02-14T15:48:27.735Z,8.70
2023-02-14T15:50:58.426Z,8.30
2023-02-14T15:53:36.347Z,7.60
2023-02-14T15:56:28.634Z,6.70
2023-02-14T15:59:16.532Z,6.90
2023-02-14T16:02:01.241Z,6.00
2023-02-14T16:04:31.503Z,5.80
2023-02-14T16:07:27.935Z,5.70
2023-02-14T16:10:25.517Z,5.50
2023-02-14T16:13:05.920Z,6.00
2023-02-14T16:15:37.034Z,7.20
2023-02-14T16:18:16.957Z,5.60
2023-02-14T16:20:48.530Z,5.90
2023-02-14T16:23:27.598Z,5.80
2023-02-14T16:25:56.931Z,6.30
2023-02-14T16:28:27.971Z,5.90
2023-02-14T16:30:57.233Z,5.50
2023-02-14T16:33:29.992Z,6.00
2023-02-14T16:38:27.319Z,6.20
2023-02-14T16:40:54.308Z,5.80
2023-02-14T16:43:21.352Z,6.30
2023-02-14T16:45:50.454Z,6.80
2023-02-14T16:48:19.504Z,7.00
2023-02-14T16:50:47.085Z,7.20
2023-02-14T16:53:38.327Z,8.10
2023-02-14T16:56:05.634Z,7.70
2023-02-14T16:58:34.564Z,8.40
2023-02-14T17:01:02.094Z,7.70
2023-02-14T17:03:29.318Z,8.20
2023-02-14T17:05:57.498Z,8.10
2023-02-14T17:08:28.514Z,7.70
2023-02-14T17:10:56.921Z,8.20
2023-02-14T17:13:25.907Z,8.10
2023-02-14T17:15:53.448Z,8.30
2023-02-14T17:18:22.221Z,11.50
2023-02-14T17:20:49.417Z,15.40
2023-02-14T17:23:16.705Z,10.60
2023-02-14T17:25:47.469Z,9.40
2023-02-14T17:28:15.620Z,9.30
2023-02-14T17:30:43.084Z,10.40
2023-02-14T17:33:10.406Z,10.30
2023-02-14T17:35:38.107Z,9.00
2023-02-14T17:38:05.261Z,10.30
2023-02-14T17:40:32.082Z,10.50
2023-02-14T17:43:00.374Z,13.20
2023-02-14T17:45:27.278Z,12.80
2023-02-14T17:47:53.897Z,13.40
2023-02-14T17:50:20.880Z,16.40
2023-02-14T17:52:47.642Z,17.90
2023-02-14T17:55:15.183Z,16.70
2023-02-14T17:57:42.078Z,15.00
2023-02-14T18:00:11.639Z,13.00
2023-02-14T18:02:38.947Z,13.50
2023-02-14T18:05:07.062Z,13.10
2023-02-14T18:07:33.894Z,19.90
2023-02-14T18:10:00.763Z,24.70
2023-02-14T18:12:27.601Z,27.00
2023-02-14T18:14:55.531Z,49.40
2023-02-14T18:17:22.518Z,42.20
2023-02-14T18:19:49.509Z,43.20
2023-02-14T18:22:16.319Z,35.50
2023-02-14T18:24:43.083Z,42.60
2023-02-14T18:27:09.900Z,40.90
2023-02-14T18:29:38.661Z,44.00
2023-02-14T18:32:05.282Z,42.90
2023-02-14T18:34:35.672Z,32.80
2023-02-14T18:37:03.829Z,28.20
2023-02-14T18:39:32.013Z,23.60
2023-02-14T18:42:01.643Z,24.90
2023-02-14T18:44:28.616Z,21.50
2023-02-14T18:46:55.357Z,24.90
2023-02-14T18:49:22.617Z,20.70
2023-02-14T18:51:49.321Z,19.60
2023-02-14T18:54:16.023Z,22.40
2023-02-14T18:56:42.782Z,24.00
2023-02-14T18:59:12.662Z,20.40
2023-02-14T19:01:42.898Z,18.40
2023-02-14T19:04:11.643Z,19.80
2023-02-14T19:06:41.748Z,19.30
2023-02-14T19:09:14.325Z,19.00
2023-02-14T19:11:41.328Z,20.90
2023-02-14T19:14:12.638Z,21.20
2023-02-14T19:16:54.580Z,19.30
2023-02-14T19:19:22.785Z,19.60
2023-02-14T19:21:50.669Z,23.10
2023-02-14T19:24:19.125Z,29.60
2023-02-14T19:26:46.772Z,31.90
2023-02-14T19:29:16.822Z,43.40
2023-02-14T19:31:48.238Z,57.50
2023-02-14T19:34:22.894Z,121.10
2023-02-14T19:36:51.544Z,80.90
2023-02-14T19:39:22.581Z,37.00
2023-02-14T19:41:52.912Z,33.10
2023-02-14T19:44:21.525Z,28.10
2023-02-14T19:46:49.850Z,31.40
2023-02-14T19:49:19.471Z,29.20
2023-02-14T19:51:48.328Z,27.40
2023-02-14T19:54:15.236Z,27.40
2023-02-14T19:56:45.549Z,28.00
2023-02-14T19:59:20.420Z,28.50
2023-02-14T20:01:51.128Z,26.10
2023-02-14T20:04:27.502Z,26.50
2023-02-14T20:06:56.779Z,27.20
2023-02-14T20:09:24.170Z,27.40
2023-02-14T20:11:54.044Z,29.00
2023-02-14T20:14:25.078Z,27.40
2023-02-14T20:16:54.490Z,28.10
2023-02-14T20:19:26.484Z,39.90
2023-02-14T20:21:53.762Z,34.90
2023-02-14T20:24:23.996Z,33.10
2023-02-14T20:26:52.397Z,35.60
2023-02-14T20:29:23.972Z,31.80
2023-02-14T20:31:56.654Z,28.00
2023-02-14T20:34:23.899Z,25.20
2023-02-14T20:36:55.002Z,24.50
2023-02-14T20:39:27.738Z,26.80
2023-02-14T20:41:54.572Z,29.30
2023-02-14T20:44:21.940Z,31.40
2023-02-14T20:46:51.870Z,34.30
2023-02-14T20:49:22.669Z,40.10
2023-02-14T20:51:52.230Z,39.60
2023-02-14T20:54:22.559Z,50.30
2023-02-14T20:56:50.608Z,52.60
2023-02-14T20:59:44.719Z,50.90
2023-02-14T21:02:11.949Z,56.90
2023-02-14T21:04:39.469Z,71.10
2023-02-14T21:07:09.717Z,76.00
2023-02-14T21:09:41.458Z,83.60
2023-02-14T21:12:08.257Z,133.80
2023-02-14T21:14:34.981Z,102.70
2023-02-14T21:17:03.762Z,101.20
2023-02-14T21:19:31.204Z,91.80
2023-02-14T21:21:58.303Z,122.50
2023-02-14T21:24:25.302Z,137.70
2023-02-14T21:26:56.085Z,149.80
2023-02-14T21:29:22.987Z,158.30
2023-02-14T21:31:49.964Z,142.50
2023-02-14T21:34:23.716Z,168.50
2023-02-14T21:36:52.858Z,169.70
2023-02-14T21:39:24.846Z,159.40
2023-02-14T21:41:51.814Z,176.60
2023-02-14T21:44:37.184Z,186.30
2023-02-14T21:47:04.072Z,175.50
2023-02-14T21:49:50.181Z,173.70
2023-02-14T21:52:16.988Z,172.70
2023-02-14T21:54:43.915Z,199.10
2023-02-14T21:57:10.655Z,213.90
2023-02-14T21:59:39.527Z,188.40
2023-02-14T22:02:06.699Z,191.50
2023-02-14T22:04:37.447Z,166.50
2023-02-14T22:07:04.252Z,156.50
2023-02-14T22:09:31.663Z,150.50
2023-02-14T22:11:58.351Z,162.40
2023-02-14T22:14:28.513Z,167.10
2023-02-14T22:16:55.430Z,181.80
2023-02-14T22:19:22.255Z,183.50
2023-02-14T22:21:49.080Z,184.50
2023-02-14T22:24:15.780Z,178.90
2023-02-14T22:26:42.457Z,177.20
2023-02-14T22:29:11.747Z,197.50
2023-02-14T22:31:44.370Z,206.00
2023-02-14T22:34:14.168Z,213.90
2023-02-14T22:36:41.678Z,242.90
2023-02-14T22:39:11.240Z,227.70
2023-02-14T22:41:40.780Z,209.70
2023-02-14T22:44:08.449Z,188.70
2023-02-14T22:46:38.702Z,186.60
2023-02-14T22:49:06.870Z,173.10
2023-02-14T22:51:37.166Z,170.10
2023-02-14T22:54:07.731Z,166.40
2023-02-14T22:56:41.590Z,139.20
2023-02-14T22:59:27.490Z,147.60
2023-02-14T23:01:54.221Z,143.40
2023-02-14T23:04:23.864Z,139.20
2023-02-14T23:06:51.856Z,108.80
2023-02-14T23:09:20.103Z,87.40
2023-02-14T23:11:50.204Z,85.10
2023-02-14T23:14:36.366Z,83.20
2023-02-14T23:17:22.357Z,95.50
2023-02-14T23:20:07.371Z,100.30
2023-02-14T23:22:40.454Z,97.90
2023-02-14T23:25:10.612Z,89.20
2023-02-14T23:27:40.283Z,88.20
2023-02-14T23:30:10.932Z,89.10
2023-02-14T23:32:37.831Z,81.70
2023-02-14T23:35:05.462Z,77.20
2023-02-14T23:37:32.881Z,87.90
2023-02-14T23:39:59.543Z,95.80
2023-02-14T23:42:27.618Z,109.00
2023-02-14T23:45:14.250Z,114.00
2023-02-14T23:47:40.935Z,126.30
2023-02-14T23:50:08.287Z,132.70
2023-02-14T23:52:36.466Z,138.70
2023-02-14T23:55:05.791Z,153.20
2023-02-14T23:57:32.674Z,158.90
